Fort Grant, Arizona
Current Conditions -  °F | °C
As of 2:51 PM on Thursday 27 Nov 2014 (Local Time) from KSAD Reporting Station
Clear Clear  
Wind Chill: 73°   Ceiling: Unl
Heat Index: 73°   Visibility: 10mi
Dew Point: 19°   Wind: 7mph
Humidity: 13%   Direction: 170°S
Pressure: 30.22"   Gusts: NA
Location:  32.5598°N, 110.08°W
Report Text: KSAD 272151Z AUTO 17006KT 10SM CLR 23/M07 A3022 RMK AO2 SLP207 T02281072
Loading
Personal Weather Stations






























Interactive Weather Map New forecast layout! Learn more

10-Day Weather Forecast

Advertisements
Track Severe Weather on mobile